sensor_id;sensor_type;location;lat;lon;timestamp;pressure;altitude;pressure_sealevel;temperature;humidity
47054;BME280;32811;52.382;5.270;2023-04-25T00:02:14;101144.00;;;5.54;100.00
47054;BME280;32811;52.382;5.270;2023-04-25T00:04:41;101137.72;;;5.45;100.00
47054;BME280;32811;52.382;5.270;2023-04-25T00:07:08;101140.28;;;5.45;100.00
47054;BME280;32811;52.382;5.270;2023-04-25T00:09:35;101141.25;;;5.48;100.00
47054;BME280;32811;52.382;5.270;2023-04-25T00:12:01;101135.22;;;5.46;100.00
47054;BME280;32811;52.382;5.270;2023-04-25T00:14:29;101126.16;;;5.57;100.00
47054;BME280;32811;52.382;5.270;2023-04-25T00:16:55;101140.81;;;5.61;100.00
47054;BME280;32811;52.382;5.270;2023-04-25T00:19:22;101115.78;;;5.53;100.00
47054;BME280;32811;52.382;5.270;2023-04-25T00:21:48;101137.41;;;5.62;100.00
47054;BME280;32811;52.382;5.270;2023-04-25T00:24:15;101147.81;;;5.69;100.00
47054;BME280;32811;52.382;5.270;2023-04-25T00:26:42;101138.25;;;5.61;100.00
47054;BME280;32811;52.382;5.270;2023-04-25T00:29:08;101147.50;;;5.58;100.00
47054;BME280;32811;52.382;5.270;2023-04-25T00:31:35;101157.72;;;5.56;100.00
47054;BME280;32811;52.382;5.270;2023-04-25T00:34:02;101161.00;;;5.52;100.00
47054;BME280;32811;52.382;5.270;2023-04-25T00:36:28;101158.50;;;5.54;100.00
47054;BME280;32811;52.382;5.270;2023-04-25T00:38:55;101151.56;;;5.50;100.00
47054;BME280;32811;52.382;5.270;2023-04-25T00:41:22;101160.00;;;5.47;100.00
47054;BME280;32811;52.382;5.270;2023-04-25T00:43:49;101163.31;;;5.45;100.00
47054;BME280;32811;52.382;5.270;2023-04-25T00:46:17;101160.75;;;5.45;100.00
47054;BME280;32811;52.382;5.270;2023-04-25T00:48:44;101160.63;;;5.40;100.00
47054;BME280;32811;52.382;5.270;2023-04-25T00:51:14;101163.31;;;5.45;100.00
47054;BME280;32811;52.382;5.270;2023-04-25T00:53:42;101155.38;;;5.35;100.00
47054;BME280;32811;52.382;5.270;2023-04-25T00:56:09;101167.94;;;5.28;100.00
47054;BME280;32811;52.382;5.270;2023-04-25T00:58:36;101163.53;;;5.24;100.00
47054;BME280;32811;52.382;5.270;2023-04-25T01:01:03;101160.56;;;5.10;100.00
47054;BME280;32811;52.382;5.270;2023-04-25T01:03:32;101163.19;;;5.11;100.00
47054;BME280;32811;52.382;5.270;2023-04-25T01:06:02;101166.88;;;5.21;100.00
47054;BME280;32811;52.382;5.270;2023-04-25T01:08:29;101163.25;;;5.14;100.00
47054;BME280;32811;52.382;5.270;2023-04-25T01:10:56;101157.16;;;5.11;100.00
47054;BME280;32811;52.382;5.270;2023-04-25T01:13:23;101179.53;;;5.16;100.00
47054;BME280;32811;52.382;5.270;2023-04-25T01:15:49;101159.72;;;5.11;100.00
47054;BME280;32811;52.382;5.270;2023-04-25T01:18:16;101153.31;;;4.96;100.00
47054;BME280;32811;52.382;5.270;2023-04-25T01:20:43;101166.88;;;4.94;100.00
47054;BME280;32811;52.382;5.270;2023-04-25T01:23:10;101157.16;;;4.84;100.00
47054;BME280;32811;52.382;5.270;2023-04-25T01:25:37;101172.50;;;4.84;100.00
47054;BME280;32811;52.382;5.270;2023-04-25T01:28:04;101172.34;;;4.79;100.00
47054;BME280;32811;52.382;5.270;2023-04-25T01:30:31;101176.53;;;4.77;100.00
47054;BME280;32811;52.382;5.270;2023-04-25T01:32:58;101178.16;;;4.75;100.00
47054;BME280;32811;52.382;5.270;2023-04-25T01:35:25;101159.19;;;4.68;100.00
47054;BME280;32811;52.382;5.270;2023-04-25T01:37:52;101161.97;;;4.74;100.00
47054;BME280;32811;52.382;5.270;2023-04-25T01:40:20;101175.25;;;4.90;100.00
47054;BME280;32811;52.382;5.270;2023-04-25T01:42:49;101183.03;;;4.93;100.00
47054;BME280;32811;52.382;5.270;2023-04-25T01:45:16;101169.22;;;4.88;100.00
47054;BME280;32811;52.382;5.270;2023-04-25T01:47:43;101170.34;;;4.96;100.00
47054;BME280;32811;52.382;5.270;2023-04-25T01:50:13;101167.50;;;4.87;100.00
47054;BME280;32811;52.382;5.270;2023-04-25T01:52:39;101184.63;;;4.89;100.00
47054;BME280;32811;52.382;5.270;2023-04-25T01:55:06;101172.97;;;4.72;100.00
47054;BME280;32811;52.382;5.270;2023-04-25T01:57:33;101165.91;;;4.65;100.00
47054;BME280;32811;52.382;5.270;2023-04-25T02:00:02;101191.53;;;4.92;100.00
47054;BME280;32811;52.382;5.270;2023-04-25T02:02:30;101172.41;;;4.81;100.00
47054;BME280;32811;52.382;5.270;2023-04-25T02:04:56;101182.63;;;4.81;100.00
47054;BME280;32811;52.382;5.270;2023-04-25T02:07:23;101162.44;;;4.63;100.00
47054;BME280;32811;52.382;5.270;2023-04-25T02:09:50;101169.72;;;4.52;100.00
47054;BME280;32811;52.382;5.270;2023-04-25T02:12:16;101193.75;;;4.57;100.00
47054;BME280;32811;52.382;5.270;2023-04-25T02:14:43;101185.78;;;4.48;100.00
47054;BME280;32811;52.382;5.270;2023-04-25T02:17:10;101186.69;;;4.50;100.00
47054;BME280;32811;52.382;5.270;2023-04-25T02:19:37;101156.91;;;4.26;100.00
47054;BME280;32811;52.382;5.270;2023-04-25T02:22:03;101165.41;;;4.25;100.00
47054;BME280;32811;52.382;5.270;2023-04-25T02:24:30;101205.91;;;4.39;100.00
47054;BME280;32811;52.382;5.270;2023-04-25T02:26:58;101199.09;;;4.39;100.00
47054;BME280;32811;52.382;5.270;2023-04-25T02:29:24;101196.28;;;4.31;100.00
47054;BME280;32811;52.382;5.270;2023-04-25T02:31:51;101205.44;;;4.49;100.00
47054;BME280;32811;52.382;5.270;2023-04-25T02:34:18;101193.53;;;4.51;100.00
47054;BME280;32811;52.382;5.270;2023-04-25T02:36:44;101191.72;;;4.47;100.00
47054;BME280;32811;52.382;5.270;2023-04-25T02:39:11;101203.66;;;4.48;100.00
47054;BME280;32811;52.382;5.270;2023-04-25T02:41:38;101194.00;;;4.39;100.00
47054;BME280;32811;52.382;5.270;2023-04-25T02:44:04;101177.31;;;4.25;100.00
47054;BME280;32811;52.382;5.270;2023-04-25T02:46:31;101203.81;;;4.52;100.00
47054;BME280;32811;52.382;5.270;2023-04-25T02:49:06;101206.31;;;4.51;100.00
47054;BME280;32811;52.382;5.270;2023-04-25T02:51:33;101216.81;;;4.58;100.00
47054;BME280;32811;52.382;5.270;2023-04-25T02:53:59;101205.03;;;4.62;100.00
47054;BME280;32811;52.382;5.270;2023-04-25T02:56:26;101203.72;;;4.73;100.00
47054;BME280;32811;52.382;5.270;2023-04-25T02:58:53;101202.88;;;4.74;100.00
47054;BME280;32811;52.382;5.270;2023-04-25T03:01:20;101191.50;;;4.66;100.00
47054;BME280;32811;52.382;5.270;2023-04-25T03:03:47;101221.69;;;4.76;100.00
47054;BME280;32811;52.382;5.270;2023-04-25T03:06:14;101204.28;;;4.66;100.00
47054;BME280;32811;52.382;5.270;2023-04-25T03:08:41;101211.56;;;4.79;100.00
47054;BME280;32811;52.382;5.270;2023-04-25T03:11:09;101220.28;;;4.85;100.00
47054;BME280;32811;52.382;5.270;2023-04-25T03:13:36;101213.47;;;4.85;100.00
47054;BME280;32811;52.382;5.270;2023-04-25T03:16:02;101218.84;;;4.93;100.00
47054;BME280;32811;52.382;5.270;2023-04-25T03:18:29;101214.28;;;4.84;100.00
47054;BME280;32811;52.382;5.270;2023-04-25T03:20:56;101199.69;;;4.82;100.00
47054;BME280;32811;52.382;5.270;2023-04-25T03:23:23;101234.75;;;5.10;100.00
47054;BME280;32811;52.382;5.270;2023-04-25T03:25:49;101234.41;;;4.99;100.00
47054;BME280;32811;52.382;5.270;2023-04-25T03:28:16;101240.66;;;5.07;100.00
47054;BME280;32811;52.382;5.270;2023-04-25T03:30:42;101244.53;;;4.96;100.00
47054;BME280;32811;52.382;5.270;2023-04-25T03:33:09;101239.16;;;4.88;100.00
47054;BME280;32811;52.382;5.270;2023-04-25T03:35:36;101234.88;;;4.89;100.00
47054;BME280;32811;52.382;5.270;2023-04-25T03:38:02;101236.72;;;4.91;100.00
47054;BME280;32811;52.382;5.270;2023-04-25T03:40:29;101236.34;;;4.81;100.00
47054;BME280;32811;52.382;5.270;2023-04-25T03:42:55;101213.59;;;4.64;100.00
47054;BME280;32811;52.382;5.270;2023-04-25T03:45:22;101236.19;;;4.76;100.00
47054;BME280;32811;52.382;5.270;2023-04-25T03:47:49;101236.22;;;4.77;100.00
47054;BME280;32811;52.382;5.270;2023-04-25T03:50:16;101224.91;;;4.71;100.00
47054;BME280;32811;52.382;5.270;2023-04-25T03:52:43;101222.47;;;4.74;100.00
47054;BME280;32811;52.382;5.270;2023-04-25T03:55:10;101229.16;;;4.70;100.00
47054;BME280;32811;52.382;5.270;2023-04-25T03:57:36;101236.03;;;4.71;100.00
47054;BME280;32811;52.382;5.270;2023-04-25T04:00:03;101225.81;;;4.71;100.00
47054;BME280;32811;52.382;5.270;2023-04-25T04:02:31;101228.69;;;4.82;100.00
47054;BME280;32811;52.382;5.270;2023-04-25T04:04:58;101237.41;;;4.87;100.00
47054;BME280;32811;52.382;5.270;2023-04-25T04:07:24;101231.31;;;4.84;100.00
47054;BME280;32811;52.382;5.270;2023-04-25T04:09:51;101238.22;;;4.86;100.00
47054;BME280;32811;52.382;5.270;2023-04-25T04:12:18;101207.06;;;4.72;100.00
47054;BME280;32811;52.382;5.270;2023-04-25T04:14:44;101236.94;;;4.99;100.00
47054;BME280;32811;52.382;5.270;2023-04-25T04:17:11;101210.97;;;4.87;100.00
47054;BME280;32811;52.382;5.270;2023-04-25T04:19:38;101240.38;;;4.99;100.00
47054;BME280;32811;52.382;5.270;2023-04-25T04:22:04;101243.00;;;5.01;100.00
47054;BME280;32811;52.382;5.270;2023-04-25T04:24:31;101258.41;;;5.03;100.00
47054;BME280;32811;52.382;5.270;2023-04-25T04:26:57;101263.56;;;5.04;100.00
47054;BME280;32811;52.382;5.270;2023-04-25T04:29:25;101248.09;;;5.01;100.00
47054;BME280;32811;52.382;5.270;2023-04-25T04:31:52;101265.53;;;5.11;100.00
47054;BME280;32811;52.382;5.270;2023-04-25T04:34:19;101247.03;;;4.94;100.00
47054;BME280;32811;52.382;5.270;2023-04-25T04:36:46;101274.00;;;5.10;100.00
47054;BME280;32811;52.382;5.270;2023-04-25T04:39:13;101268.00;;;5.10;100.00
47054;BME280;32811;52.382;5.270;2023-04-25T04:41:40;101273.34;;;5.16;100.00
47054;BME280;32811;52.382;5.270;2023-04-25T04:44:06;101263.69;;;5.09;100.00
47054;BME280;32811;52.382;5.270;2023-04-25T04:46:35;101237.78;;;4.98;100.00
47054;BME280;32811;52.382;5.270;2023-04-25T04:49:09;101283.72;;;5.20;100.00
47054;BME280;32811;52.382;5.270;2023-04-25T04:51:36;101280.25;;;5.18;100.00
47054;BME280;32811;52.382;5.270;2023-04-25T04:54:03;101281.31;;;5.25;100.00
47054;BME280;32811;52.382;5.270;2023-04-25T04:56:30;101289.88;;;5.26;100.00
47054;BME280;32811;52.382;5.270;2023-04-25T04:58:58;101290.06;;;5.32;100.00
47054;BME280;32811;52.382;5.270;2023-04-25T05:01:25;101310.28;;;5.24;100.00
47054;BME280;32811;52.382;5.270;2023-04-25T05:03:52;101311.88;;;5.20;100.00
47054;BME280;32811;52.382;5.270;2023-04-25T05:06:20;101284.91;;;5.05;100.00
47054;BME280;32811;52.382;5.270;2023-04-25T05:08:47;101303.06;;;5.12;100.00
47054;BME280;32811;52.382;5.270;2023-04-25T05:11:14;101305.53;;;5.09;100.00
47054;BME280;32811;52.382;5.270;2023-04-25T05:13:40;101309.09;;;5.14;100.00
47054;BME280;32811;52.382;5.270;2023-04-25T05:16:07;101314.16;;;5.13;100.00
47054;BME280;32811;52.382;5.270;2023-04-25T05:18:34;101317.66;;;5.15;100.00
47054;BME280;32811;52.382;5.270;2023-04-25T05:21:00;101299.28;;;5.01;100.00
47054;BME280;32811;52.382;5.270;2023-04-25T05:23:27;101303.38;;;4.96;100.00
47054;BME280;32811;52.382;5.270;2023-04-25T05:26:00;101311.84;;;4.95;100.00
47054;BME280;32811;52.382;5.270;2023-04-25T05:28:26;101293.41;;;4.79;100.00
47054;BME280;32811;52.382;5.270;2023-04-25T05:30:57;101307.59;;;4.95;100.00
47054;BME280;32811;52.382;5.270;2023-04-25T05:33:25;101347.03;;;5.26;100.00
47054;BME280;32811;52.382;5.270;2023-04-25T05:35:51;101352.47;;;5.35;100.00
47054;BME280;32811;52.382;5.270;2023-04-25T05:38:18;101350.53;;;5.54;100.00
47054;BME280;32811;52.382;5.270;2023-04-25T05:40:45;101342.16;;;5.59;100.00
47054;BME280;32811;52.382;5.270;2023-04-25T05:43:11;101351.56;;;5.86;100.00
47054;BME280;32811;52.382;5.270;2023-04-25T05:45:38;101341.00;;;6.02;100.00
47054;BME280;32811;52.382;5.270;2023-04-25T05:48:04;101325.28;;;5.92;100.00
47054;BME280;32811;52.382;5.270;2023-04-25T05:50:31;101338.75;;;6.12;100.00
47054;BME280;32811;52.382;5.270;2023-04-25T05:52:58;101353.22;;;6.11;100.00
47054;BME280;32811;52.382;5.270;2023-04-25T05:55:24;101299.19;;;5.76;100.00
47054;BME280;32811;52.382;5.270;2023-04-25T05:57:51;101354.72;;;6.05;100.00
47054;BME280;32811;52.382;5.270;2023-04-25T06:00:18;101354.06;;;6.10;100.00
47054;BME280;32811;52.382;5.270;2023-04-25T06:02:45;101323.16;;;5.78;100.00
47054;BME280;32811;52.382;5.270;2023-04-25T06:05:12;101367.38;;;5.98;100.00
47054;BME280;32811;52.382;5.270;2023-04-25T06:07:39;101348.00;;;5.81;100.00
47054;BME280;32811;52.382;5.270;2023-04-25T06:10:06;101321.97;;;5.69;100.00
47054;BME280;32811;52.382;5.270;2023-04-25T06:12:33;101349.06;;;5.88;100.00
47054;BME280;32811;52.382;5.270;2023-04-25T06:15:00;101384.09;;;6.14;100.00
47054;BME280;32811;52.382;5.270;2023-04-25T06:17:27;101354.59;;;6.00;100.00
47054;BME280;32811;52.382;5.270;2023-04-25T06:19:54;101350.59;;;6.37;100.00
47054;BME280;32811;52.382;5.270;2023-04-25T06:22:20;101357.22;;;6.89;100.00
47054;BME280;32811;52.382;5.270;2023-04-25T06:24:47;101358.47;;;7.35;100.00
47054;BME280;32811;52.382;5.270;2023-04-25T06:27:14;101336.59;;;7.51;100.00
47054;BME280;32811;52.382;5.270;2023-04-25T06:29:42;101363.66;;;7.37;100.00
47054;BME280;32811;52.382;5.270;2023-04-25T06:32:09;101333.88;;;7.12;100.00
47054;BME280;32811;52.382;5.270;2023-04-25T06:34:35;101339.44;;;7.62;100.00
47054;BME280;32811;52.382;5.270;2023-04-25T06:37:02;101366.00;;;7.97;100.00
47054;BME280;32811;52.382;5.270;2023-04-25T06:39:29;101335.16;;;7.62;100.00
47054;BME280;32811;52.382;5.270;2023-04-25T06:41:55;101357.81;;;7.44;100.00
47054;BME280;32811;52.382;5.270;2023-04-25T06:44:22;101373.41;;;7.18;100.00
47054;BME280;32811;52.382;5.270;2023-04-25T06:46:50;101373.22;;;7.12;100.00
47054;BME280;32811;52.382;5.270;2023-04-25T06:49:17;101403.06;;;7.07;100.00
47054;BME280;32811;52.382;5.270;2023-04-25T06:51:43;101402.97;;;7.04;100.00
47054;BME280;32811;52.382;5.270;2023-04-25T06:54:10;101413.44;;;7.12;100.00
47054;BME280;32811;52.382;5.270;2023-04-25T06:56:37;101377.31;;;7.04;100.00
47054;BME280;32811;52.382;5.270;2023-04-25T06:59:05;101377.38;;;7.05;100.00
47054;BME280;32811;52.382;5.270;2023-04-25T07:01:32;101412.63;;;7.13;100.00
47054;BME280;32811;52.382;5.270;2023-04-25T07:03:59;101399.25;;;6.93;100.00
47054;BME280;32811;52.382;5.270;2023-04-25T07:06:26;101407.69;;;6.89;100.00
47054;BME280;32811;52.382;5.270;2023-04-25T07:08:54;101390.81;;;7.28;100.00
47054;BME280;32811;52.382;5.270;2023-04-25T07:11:22;101388.53;;;7.73;100.00
47054;BME280;32811;52.382;5.270;2023-04-25T07:13:48;101390.38;;;7.45;100.00
47054;BME280;32811;52.382;5.270;2023-04-25T07:16:16;101397.78;;;8.39;100.00
47054;BME280;32811;52.382;5.270;2023-04-25T07:18:42;101385.38;;;8.59;100.00
47054;BME280;32811;52.382;5.270;2023-04-25T07:21:09;101429.28;;;8.28;100.00
47054;BME280;32811;52.382;5.270;2023-04-25T07:23:36;101425.97;;;7.98;100.00
47054;BME280;32811;52.382;5.270;2023-04-25T07:26:04;101431.13;;;7.64;100.00
47054;BME280;32811;52.382;5.270;2023-04-25T07:28:31;101446.44;;;7.60;100.00
47054;BME280;32811;52.382;5.270;2023-04-25T07:30:58;101400.00;;;7.20;100.00
47054;BME280;32811;52.382;5.270;2023-04-25T07:33:27;101444.94;;;7.36;100.00
47054;BME280;32811;52.382;5.270;2023-04-25T07:35:53;101450.28;;;7.44;100.00
47054;BME280;32811;52.382;5.270;2023-04-25T07:38:21;101423.06;;;7.51;100.00
47054;BME280;32811;52.382;5.270;2023-04-25T07:40:50;101419.50;;;7.79;100.00
47054;BME280;32811;52.382;5.270;2023-04-25T07:43:17;101423.19;;;7.88;100.00
47054;BME280;32811;52.382;5.270;2023-04-25T07:45:45;101427.34;;;7.85;100.00
47054;BME280;32811;52.382;5.270;2023-04-25T07:48:19;101455.09;;;7.98;100.00
47054;BME280;32811;52.382;5.270;2023-04-25T07:50:46;101461.06;;;7.32;100.00
47054;BME280;32811;52.382;5.270;2023-04-25T07:53:12;101431.47;;;7.13;100.00
47054;BME280;32811;52.382;5.270;2023-04-25T07:55:39;101450.53;;;7.21;100.00
47054;BME280;32811;52.382;5.270;2023-04-25T07:58:07;101433.78;;;8.02;100.00
47054;BME280;32811;52.382;5.270;2023-04-25T08:00:34;101436.88;;;8.60;100.00
47054;BME280;32811;52.382;5.270;2023-04-25T08:03:02;101470.00;;;9.25;100.00
47054;BME280;32811;52.382;5.270;2023-04-25T08:05:29;101466.16;;;9.06;100.00
47054;BME280;32811;52.382;5.270;2023-04-25T08:07:59;101476.16;;;8.92;100.00
47054;BME280;32811;52.382;5.270;2023-04-25T08:10:25;101473.97;;;8.34;100.00
47054;BME280;32811;52.382;5.270;2023-04-25T08:12:52;101451.41;;;7.87;100.00
47054;BME280;32811;52.382;5.270;2023-04-25T08:15:19;101481.84;;;8.05;100.00
47054;BME280;32811;52.382;5.270;2023-04-25T08:17:46;101485.66;;;8.21;100.00
47054;BME280;32811;52.382;5.270;2023-04-25T08:20:15;101492.53;;;8.57;100.00
47054;BME280;32811;52.382;5.270;2023-04-25T08:22:42;101460.53;;;8.83;100.00
47054;BME280;32811;52.382;5.270;2023-04-25T08:25:10;101487.94;;;9.21;100.00
47054;BME280;32811;52.382;5.270;2023-04-25T08:27:40;101494.59;;;9.53;100.00
47054;BME280;32811;52.382;5.270;2023-04-25T08:30:07;101487.97;;;9.68;100.00
47054;BME280;32811;52.382;5.270;2023-04-25T08:32:35;101506.31;;;9.83;100.00
47054;BME280;32811;52.382;5.270;2023-04-25T08:35:06;101479.88;;;9.48;100.00
47054;BME280;32811;52.382;5.270;2023-04-25T08:37:33;101475.78;;;9.59;100.00
47054;BME280;32811;52.382;5.270;2023-04-25T08:40:00;101497.13;;;9.52;100.00
47054;BME280;32811;52.382;5.270;2023-04-25T08:42:27;101475.91;;;9.21;100.00
47054;BME280;32811;52.382;5.270;2023-04-25T08:44:55;101489.84;;;9.31;100.00
47054;BME280;32811;52.382;5.270;2023-04-25T08:47:22;101533.13;;;9.47;100.00
47054;BME280;32811;52.382;5.270;2023-04-25T08:49:53;101535.75;;;9.49;100.00
47054;BME280;32811;52.382;5.270;2023-04-25T08:52:23;101539.53;;;9.25;100.00
47054;BME280;32811;52.382;5.270;2023-04-25T08:54:54;101549.34;;;8.64;100.00
47054;BME280;32811;52.382;5.270;2023-04-25T08:57:22;101536.22;;;7.55;100.00
47054;BME280;32811;52.382;5.270;2023-04-25T08:59:53;101539.25;;;7.42;100.00
47054;BME280;32811;52.382;5.270;2023-04-25T09:02:20;101521.84;;;7.03;100.00
47054;BME280;32811;52.382;5.270;2023-04-25T09:04:48;101566.53;;;7.08;100.00
47054;BME280;32811;52.382;5.270;2023-04-25T09:07:15;101583.19;;;6.94;100.00
47054;BME280;32811;52.382;5.270;2023-04-25T09:09:45;101584.97;;;6.69;100.00
47054;BME280;32811;52.382;5.270;2023-04-25T09:12:12;101584.66;;;6.60;100.00
47054;BME280;32811;52.382;5.270;2023-04-25T09:14:38;101571.50;;;6.49;100.00
47054;BME280;32811;52.382;5.270;2023-04-25T09:17:13;101570.97;;;6.59;100.00
47054;BME280;32811;52.382;5.270;2023-04-25T09:19:40;101558.38;;;6.65;100.00
47054;BME280;32811;52.382;5.270;2023-04-25T09:22:17;101580.16;;;7.07;100.00
47054;BME280;32811;52.382;5.270;2023-04-25T09:24:50;101583.75;;;7.41;100.00
47054;BME280;32811;52.382;5.270;2023-04-25T09:27:25;101589.56;;;7.65;100.00
47054;BME280;32811;52.382;5.270;2023-04-25T09:29:59;101604.88;;;8.23;100.00
47054;BME280;32811;52.382;5.270;2023-04-25T09:32:28;101597.38;;;8.32;100.00
47054;BME280;32811;52.382;5.270;2023-04-25T09:34:56;101607.25;;;8.47;100.00
47054;BME280;32811;52.382;5.270;2023-04-25T09:37:28;101590.94;;;8.48;100.00
47054;BME280;32811;52.382;5.270;2023-04-25T09:40:00;101577.53;;;8.60;100.00
47054;BME280;32811;52.382;5.270;2023-04-25T09:42:32;101606.00;;;9.04;100.00
47054;BME280;32811;52.382;5.270;2023-04-25T09:45:01;101601.22;;;9.19;100.00
47054;BME280;32811;52.382;5.270;2023-04-25T09:47:28;101592.47;;;9.11;100.00
47054;BME280;32811;52.382;5.270;2023-04-25T09:49:59;101551.09;;;8.32;100.00
47054;BME280;32811;52.382;5.270;2023-04-25T09:52:30;101621.50;;;8.37;100.00
47054;BME280;32811;52.382;5.270;2023-04-25T09:54:58;101616.56;;;8.43;100.00
47054;BME280;32811;52.382;5.270;2023-04-25T09:57:25;101617.16;;;9.03;100.00
47054;BME280;32811;52.382;5.270;2023-04-25T09:59:54;101620.34;;;8.92;100.00
47054;BME280;32811;52.382;5.270;2023-04-25T10:02:26;101620.84;;;9.14;100.00
47054;BME280;32811;52.382;5.270;2023-04-25T10:04:55;101612.16;;;9.09;100.00
47054;BME280;32811;52.382;5.270;2023-04-25T10:07:24;101616.16;;;9.34;100.00
47054;BME280;32811;52.382;5.270;2023-04-25T10:09:59;101617.34;;;9.50;100.00
47054;BME280;32811;52.382;5.270;2023-04-25T10:12:27;101615.06;;;9.64;100.00
47054;BME280;32811;52.382;5.270;2023-04-25T10:14:54;101616.38;;;9.45;100.00
47054;BME280;32811;52.382;5.270;2023-04-25T10:17:21;101616.59;;;9.54;100.00
47054;BME280;32811;52.382;5.270;2023-04-25T10:19:48;101610.50;;;9.12;100.00
47054;BME280;32811;52.382;5.270;2023-04-25T10:22:22;101613.38;;;9.66;100.00
47054;BME280;32811;52.382;5.270;2023-04-25T10:24:52;101586.56;;;9.56;100.00
47054;BME280;32811;52.382;5.270;2023-04-25T10:27:19;101620.28;;;9.27;100.00
47054;BME280;32811;52.382;5.270;2023-04-25T10:30:02;101630.53;;;8.86;100.00
47054;BME280;32811;52.382;5.270;2023-04-25T10:32:31;101635.69;;;8.53;100.00
47054;BME280;32811;52.382;5.270;2023-04-25T10:35:15;101642.63;;;8.24;100.00
47054;BME280;32811;52.382;5.270;2023-04-25T10:40:25;101644.63;;;8.67;100.00
47054;BME280;32811;52.382;5.270;2023-04-25T10:42:52;101637.25;;;8.81;100.00
47054;BME280;32811;52.382;5.270;2023-04-25T10:45:22;101657.09;;;8.52;100.00
47054;BME280;32811;52.382;5.270;2023-04-25T10:47:49;101645.44;;;8.33;100.00
47054;BME280;32811;52.382;5.270;2023-04-25T10:50:15;101660.06;;;8.36;100.00
47054;BME280;32811;52.382;5.270;2023-04-25T10:52:43;101658.56;;;8.42;100.00
47054;BME280;32811;52.382;5.270;2023-04-25T10:55:10;101664.94;;;8.25;100.00
47054;BME280;32811;52.382;5.270;2023-04-25T10:57:42;101656.50;;;8.62;100.00
47054;BME280;32811;52.382;5.270;2023-04-25T11:00:18;101658.63;;;9.13;100.00
47054;BME280;32811;52.382;5.270;2023-04-25T11:02:57;101652.09;;;9.67;100.00
47054;BME280;32811;52.382;5.270;2023-04-25T11:05:35;101654.84;;;9.76;100.00
47054;BME280;32811;52.382;5.270;2023-04-25T11:08:30;101648.59;;;9.65;100.00
47054;BME280;32811;52.382;5.270;2023-04-25T11:11:03;101641.91;;;9.75;100.00
47054;BME280;32811;52.382;5.270;2023-04-25T11:13:29;101636.66;;;10.13;100.00
47054;BME280;32811;52.382;5.270;2023-04-25T11:15:57;101639.50;;;10.27;100.00
47054;BME280;32811;52.382;5.270;2023-04-25T11:18:41;101630.69;;;9.71;100.00
47054;BME280;32811;52.382;5.270;2023-04-25T11:21:08;101656.91;;;9.52;100.00
47054;BME280;32811;52.382;5.270;2023-04-25T11:23:35;101650.31;;;9.25;100.00
47054;BME280;32811;52.382;5.270;2023-04-25T11:26:03;101651.22;;;9.27;100.00
47054;BME280;32811;52.382;5.270;2023-04-25T11:28:30;101617.38;;;9.51;97.16
47054;BME280;32811;52.382;5.270;2023-04-25T11:30:58;101619.22;;;9.57;78.33
47054;BME280;32811;52.382;5.270;2023-04-25T11:33:25;101653.50;;;9.95;78.35
47054;BME280;32811;52.382;5.270;2023-04-25T11:35:54;101632.19;;;10.04;75.13
47054;BME280;32811;52.382;5.270;2023-04-25T11:38:24;101623.00;;;9.74;72.58
47054;BME280;32811;52.382;5.270;2023-04-25T11:40:54;101650.53;;;10.18;74.54
47054;BME280;32811;52.382;5.270;2023-04-25T11:43:21;101654.41;;;9.96;82.67
47054;BME280;32811;52.382;5.270;2023-04-25T11:45:49;101634.84;;;9.25;86.75
47054;BME280;32811;52.382;5.270;2023-04-25T11:48:20;101664.75;;;9.56;87.28
47054;BME280;32811;52.382;5.270;2023-04-25T11:50:51;101657.91;;;9.59;81.26
47054;BME280;32811;52.382;5.270;2023-04-25T11:53:18;101639.69;;;9.49;77.03
47054;BME280;32811;52.382;5.270;2023-04-25T11:55:44;101675.44;;;9.75;88.97
47054;BME280;32811;52.382;5.270;2023-04-25T11:58:14;101656.00;;;9.91;89.59
47054;BME280;32811;52.382;5.270;2023-04-25T12:00:42;101678.59;;;10.03;83.02
47054;BME280;32811;52.382;5.270;2023-04-25T12:03:17;101679.88;;;10.23;78.16
47054;BME280;32811;52.382;5.270;2023-04-25T12:05:45;101676.94;;;10.06;74.59
47054;BME280;32811;52.382;5.270;2023-04-25T12:08:14;101688.50;;;10.27;70.30
47054;BME280;32811;52.382;5.270;2023-04-25T12:10:43;101684.47;;;10.38;74.86
47054;BME280;32811;52.382;5.270;2023-04-25T12:13:23;101681.88;;;10.38;75.76
47054;BME280;32811;52.382;5.270;2023-04-25T12:15:51;101680.38;;;10.05;83.72
47054;BME280;32811;52.382;5.270;2023-04-25T12:18:23;101662.06;;;9.93;79.72
47054;BME280;32811;52.382;5.270;2023-04-25T12:20:52;101640.25;;;9.77;78.06
47054;BME280;32811;52.382;5.270;2023-04-25T12:23:25;101685.09;;;10.28;78.19
47054;BME280;32811;52.382;5.270;2023-04-25T12:25:53;101673.97;;;10.29;78.12
47054;BME280;32811;52.382;5.270;2023-04-25T12:28:24;101683.84;;;10.07;89.15
47054;BME280;32811;52.382;5.270;2023-04-25T12:35:58;101717.78;;;8.77;96.67
47054;BME280;32811;52.382;5.270;2023-04-25T12:38:36;101724.75;;;8.48;100.00
47054;BME280;32811;52.382;5.270;2023-04-25T12:41:03;101710.25;;;8.21;100.00
47054;BME280;32811;52.382;5.270;2023-04-25T12:43:29;101720.25;;;8.10;100.00
47054;BME280;32811;52.382;5.270;2023-04-25T12:45:57;101729.16;;;8.22;98.88
47054;BME280;32811;52.382;5.270;2023-04-25T12:48:24;101721.25;;;8.16;100.00
47054;BME280;32811;52.382;5.270;2023-04-25T12:50:51;101727.50;;;8.24;100.00
47054;BME280;32811;52.382;5.270;2023-04-25T12:53:22;101729.09;;;8.20;100.00
47054;BME280;32811;52.382;5.270;2023-04-25T12:55:50;101717.31;;;8.59;100.00
47054;BME280;32811;52.382;5.270;2023-04-25T12:58:18;101706.03;;;8.87;100.00
47054;BME280;32811;52.382;5.270;2023-04-25T13:00:46;101713.72;;;8.85;100.00
47054;BME280;32811;52.382;5.270;2023-04-25T13:03:17;101680.72;;;8.70;100.00